Time;durP1;ratioP1;P1;durP2;ratioP2;P2;SDS_P1;SDS_P2;PMS_P1;PMS_P2;Temp;Humidity;BMP_temperature;BMP_pressure;BME280_temperature;BME280_humidity;BME280_pressure;Samples;Min_cycle;Max_cycle;Signal;HPM_P1;HPM_P2
2021/11/02 00:00:36;;;;;;;53.53;34.90;;;;;;;-140.66;100.00;55571.53;4956066;29;20035;-73
2021/11/02 00:03:21;;;;;;;55.40;34.47;;;;;;;-140.66;100.00;55571.53;4956867;29;20385;-72
2021/11/02 00:06:08;;;;;;;58.38;33.28;;;;;;;-140.66;100.00;55571.53;4956197;29;20470;-73
2021/11/02 00:08:53;;;;;;;51.40;33.20;;;;;;;-140.66;100.00;55571.53;4956284;28;20031;-72
2021/11/02 00:11:39;;;;;;;51.50;32.67;;;;;;;-140.66;100.00;55571.53;4955932;29;20405;-72
2021/11/02 00:14:28;;;;;;;53.30;34.38;;;;;;;-140.66;100.00;55571.53;4957111;29;20031;-73
2021/11/02 00:17:20;;;;;;;50.70;33.08;;;;;;;-140.66;100.00;55571.53;4956193;29;20041;-73
2021/11/02 00:20:11;;;;;;;53.30;33.97;;;;;;;-140.66;100.00;55571.53;4942669;29;20031;-73
2021/11/02 00:22:59;;;;;;;59.45;38.42;;;;;;;-140.66;100.00;55571.53;4956001;29;20365;-73
2021/11/02 00:25:45;;;;;;;60.17;38.55;;;;;;;-140.66;100.00;55571.53;4942938;29;20118;-72
2021/11/02 00:28:31;;;;;;;58.65;36.70;;;;;;;-140.66;100.00;55571.53;4942483;29;20130;-73
2021/11/02 00:31:16;;;;;;;65.72;42.33;;;;;;;-140.66;100.00;55571.53;4956233;29;20068;-73
2021/11/02 00:34:02;;;;;;;65.22;43.45;;;;;;;-140.66;100.00;55571.53;4942354;29;20042;-73
2021/11/02 00:36:48;;;;;;;61.78;39.28;;;;;;;-140.66;100.00;55571.53;4942488;29;20060;-74
2021/11/02 00:39:34;;;;;;;62.75;39.97;;;;;;;-140.66;100.00;55571.53;4955554;28;20027;-73
2021/11/02 00:42:27;;;;;;;61.28;39.38;;;;;;;-140.66;100.00;55571.53;4955724;29;20042;-72
2021/11/02 00:45:14;;;;;;;61.38;37.58;;;;;;;-140.66;100.00;55571.53;4942893;29;20067;-72
2021/11/02 00:48:07;;;;;;;60.00;36.65;;;;;;;-140.66;100.00;55571.53;4955771;29;20027;-72
2021/11/02 00:50:54;;;;;;;55.97;36.25;;;;;;;-140.66;100.00;55571.53;4955165;29;20037;-72
2021/11/02 00:53:39;;;;;;;53.63;34.50;;;;;;;-140.66;100.00;55571.53;4941957;29;20457;-73
2021/11/02 00:56:25;;;;;;;57.13;34.17;;;;;;;-140.66;100.00;55571.53;4955787;29;20035;-73
2021/11/02 00:59:11;;;;;;;51.53;33.65;;;;;;;-140.66;100.00;55571.53;4955341;29;20034;-73
2021/11/02 01:01:57;;;;;;;50.33;32.85;;;;;;;-140.66;100.00;55571.53;4955106;29;20113;-72
2021/11/02 01:04:43;;;;;;;48.08;32.75;;;;;;;-140.66;100.00;55571.53;4955420;29;20045;-72
2021/11/02 01:07:29;;;;;;;51.38;33.00;;;;;;;-140.66;100.00;55571.53;4942109;29;20019;-72
2021/11/02 01:10:16;;;;;;;46.13;31.02;;;;;;;-140.66;100.00;55571.53;4955598;29;20051;-72
2021/11/02 01:13:02;;;;;;;47.97;31.33;;;;;;;-140.66;100.00;55571.53;4942261;29;20046;-72
2021/11/02 01:15:48;;;;;;;51.15;33.72;;;;;;;-140.66;100.00;55571.53;4956647;29;20035;-72
2021/11/02 02:44:28;;;;;;;58.13;27.85;;;;;;;-140.66;100.00;55571.53;5414496;23;20063;-73
2021/11/02 02:47:18;;;;;;;43.20;25.13;;;;;;;-140.66;100.00;55571.53;4925833;29;20039;-74
2021/11/02 02:50:07;;;;;;;40.42;27.90;;;;;;;-140.66;100.00;55571.53;4939019;29;20123;-72
2021/11/02 02:52:58;;;;;;;35.70;25.60;;;;;;;-140.66;100.00;55571.53;4925760;29;20051;-73
2021/11/02 02:55:44;;;;;;;39.10;26.73;;;;;;;-140.66;100.00;55571.53;4925622;29;20458;-72
2021/11/02 02:58:33;;;;;;;37.50;25.77;;;;;;;-140.66;100.00;55571.53;4938335;29;20533;-73
2021/11/02 03:01:22;;;;;;;37.67;26.23;;;;;;;-140.66;100.00;55571.53;4925986;29;20032;-73
2021/11/02 03:56:05;;;;;;;32.63;21.13;;;;;;;-140.66;100.00;55571.53;4957036;29;20038;-74
2021/11/02 06:28:20;;;;;;;30.87;15.13;;;;;;;-140.66;100.00;55571.53;6004128;23;20219;31
2021/11/02 06:31:52;;;;;;;24.35;15.15;;;;;;;-140.66;100.00;55571.53;4865168;29;20097;-73
2021/11/02 06:34:17;;;;;;;42.42;22.17;;;;;;;-140.66;100.00;55571.53;4864676;29;20044;-73
2021/11/02 09:08:00;;;;;;;32.75;22.50;;;;;;;-140.66;100.00;55571.53;5604826;23;20039;-72
2021/11/02 09:10:47;;;;;;;37.63;25.85;;;;;;;-140.66;100.00;55571.53;4942378;29;20031;-73
2021/11/02 09:13:34;;;;;;;45.42;28.08;;;;;;;-140.66;100.00;55571.53;4942184;29;20073;-73
2021/11/02 09:16:22;;;;;;;38.10;25.20;;;;;;;-140.66;100.00;55571.53;4955509;29;20473;-74
2021/11/02 09:19:12;;;;;;;34.35;24.17;;;;;;;-140.66;100.00;55571.53;4955857;29;20446;-75
2021/11/02 09:21:58;;;;;;;36.28;24.85;;;;;;;-140.66;100.00;55571.53;4942456;29;20023;-72
2021/11/02 09:24:45;;;;;;;42.90;26.20;;;;;;;-140.66;100.00;55571.53;4955442;29;20110;-73
2021/11/02 09:27:31;;;;;;;49.72;31.13;;;;;;;-140.66;100.00;55571.53;4956214;29;20485;-73
2021/11/02 09:30:20;;;;;;;46.60;30.80;;;;;;;-140.66;100.00;55571.53;4956076;29;20122;-72
2021/11/02 09:33:05;;;;;;;41.00;28.17;;;;;;;-140.66;100.00;55571.53;4956589;29;20358;-73
2021/11/02 09:35:58;;;;;;;40.83;26.15;;;;;;;-140.66;100.00;55571.53;4955228;29;20035;-74
2021/11/02 09:38:53;;;;;;;44.00;27.85;;;;;;;-140.66;100.00;55571.53;4956279;29;20059;-74
2021/11/02 09:41:54;;;;;;;43.03;28.60;;;;;;;-140.66;100.00;55571.53;4955218;29;20038;-74
2021/11/02 09:44:54;;;;;;;45.50;28.85;;;;;;;-140.66;100.00;55571.53;4954898;29;20031;-74
2021/11/02 10:23:03;;;;;;;49.15;31.55;;;;;;;-140.66;100.00;55571.53;6005418;23;20019;31
2021/11/02 10:26:10;;;;;;;44.28;30.45;;;;;;;-140.66;100.00;55571.53;4908134;29;20079;-73
2021/11/02 10:29:20;;;;;;;45.03;31.30;;;;;;;-140.66;100.00;55571.53;4920515;29;20047;-73
2021/11/02 10:32:11;;;;;;;47.47;31.20;;;;;;;-140.66;100.00;55571.53;4920595;29;20024;-73
2021/11/02 10:35:25;;;;;;;45.65;32.67;;;;;;;-140.66;100.00;55571.53;4920500;29;20024;-74
2021/11/02 10:38:24;;;;;;;46.92;32.78;;;;;;;-140.66;100.00;55571.53;4920219;29;20039;-73
2021/11/02 10:41:15;;;;;;;49.97;32.70;;;;;;;-140.66;100.00;55571.53;4920150;29;20095;-75
2021/11/02 10:44:18;;;;;;;41.33;29.80;;;;;;;-140.66;100.00;55571.53;4920814;29;20101;-72
2021/11/02 10:47:20;;;;;;;42.50;29.52;;;;;;;-140.66;100.00;55571.53;4945924;29;20099;-73
2021/11/02 10:50:07;;;;;;;43.40;28.98;;;;;;;-140.66;100.00;55571.53;4920897;29;20404;-73
2021/11/02 10:52:57;;;;;;;41.97;30.38;;;;;;;-140.66;100.00;55571.53;4920115;29;20047;-73
2021/11/02 10:55:58;;;;;;;35.20;27.13;;;;;;;-140.66;100.00;55571.53;4919498;29;20115;-73
2021/11/02 10:58:53;;;;;;;36.72;28.25;;;;;;;-140.66;100.00;55571.53;4919986;29;20120;-74
2021/11/02 12:25:08;;;;;;;39.83;28.48;;;;;;;-140.66;100.00;55571.53;5015310;23;20059;-72
2021/11/02 12:27:55;;;;;;;38.85;28.30;;;;;;;-140.66;100.00;55571.53;4956142;29;20054;-73
2021/11/02 12:30:44;;;;;;;40.88;30.00;;;;;;;-140.66;100.00;55571.53;4957385;29;20027;-73
2021/11/02 12:33:31;;;;;;;41.33;29.35;;;;;;;-140.66;100.00;55571.53;4959593;29;20068;-73
2021/11/02 12:36:26;;;;;;;40.88;29.58;;;;;;;-140.66;100.00;55571.53;4956491;28;20058;-73
2021/11/02 12:39:12;;;;;;;40.42;30.42;;;;;;;-140.66;100.00;55571.53;4957525;28;20023;-73
2021/11/02 12:41:59;;;;;;;42.63;31.33;;;;;;;-140.66;100.00;55571.53;4956180;29;20027;-73
2021/11/02 12:44:49;;;;;;;42.58;31.38;;;;;;;-140.66;100.00;55571.53;4955026;29;20106;-74
2021/11/02 12:47:36;;;;;;;44.30;31.48;;;;;;;-140.66;100.00;55571.53;4956592;29;20045;-73
2021/11/02 12:50:27;;;;;;;49.13;34.88;;;;;;;-140.66;100.00;55571.53;4957102;29;20031;-72
2021/11/02 12:53:15;;;;;;;46.30;33.80;;;;;;;-140.66;100.00;55571.53;4956731;29;20468;-73
2021/11/02 12:56:14;;;;;;;53.72;37.17;;;;;;;-140.66;100.00;55571.53;4956134;29;20026;-73
2021/11/02 12:59:11;;;;;;;50.70;35.95;;;;;;;-140.66;100.00;55571.53;4956568;29;20457;-72
2021/11/02 13:02:41;;;;;;;47.03;34.17;;;;;;;-140.66;100.00;55571.53;4955288;29;20058;-73
2021/11/02 14:07:34;;;;;;;49.42;35.63;;;;;;;-140.66;100.00;55571.53;5886820;23;20054;-74
2021/11/02 14:10:28;;;;;;;49.78;35.30;;;;;;;-140.66;100.00;55571.53;4959282;29;20055;-74
2021/11/02 14:13:14;;;;;;;50.42;35.92;;;;;;;-140.66;100.00;55571.53;4959468;29;20023;-72
2021/11/02 14:16:03;;;;;;;52.80;36.55;;;;;;;-140.66;100.00;55571.53;4959138;29;20038;-73
2021/11/02 14:18:49;;;;;;;52.55;37.80;;;;;;;-140.66;100.00;55571.53;4958818;29;20049;-73
2021/11/02 14:21:51;;;;;;;59.20;40.10;;;;;;;-140.66;100.00;55571.53;4944766;29;20023;-73
2021/11/02 14:24:43;;;;;;;55.90;38.33;;;;;;;-140.66;100.00;55571.53;4959617;29;20104;-74
2021/11/02 14:27:51;;;;;;;52.47;36.78;;;;;;;-140.66;100.00;55571.53;4944529;29;20031;-73
2021/11/02 14:30:39;;;;;;;54.97;38.08;;;;;;;-140.66;100.00;55571.53;4944020;29;20118;-73
2021/11/02 15:51:59;;;;;;;45.83;31.27;;;;;;;-140.66;100.00;55571.53;4955800;28;20438;-75
2021/11/02 15:54:46;;;;;;;45.13;31.60;;;;;;;-140.66;100.00;55571.53;4958542;28;20380;-74
2021/11/02 15:57:44;;;;;;;50.47;33.22;;;;;;;-140.66;100.00;55571.53;4940227;28;20425;-73
2021/11/02 16:00:41;;;;;;;46.70;32.42;;;;;;;-140.66;100.00;55571.53;4937739;29;20054;-74
2021/11/02 16:03:33;;;;;;;58.38;34.83;;;;;;;-140.66;100.00;55571.53;4924971;29;20028;-74
2021/11/02 16:06:19;;;;;;;46.25;31.58;;;;;;;-140.66;100.00;55571.53;4938299;29;20035;-74
2021/11/02 16:09:06;;;;;;;49.22;32.80;;;;;;;-140.66;100.00;55571.53;4938730;29;20035;-73
2021/11/02 16:11:54;;;;;;;51.08;33.83;;;;;;;-140.66;100.00;55571.53;4937768;29;20041;-74
2021/11/02 16:14:48;;;;;;;52.38;34.40;;;;;;;-140.66;100.00;55571.53;4937460;29;20042;-74
2021/11/02 16:17:47;;;;;;;48.20;32.05;;;;;;;-140.66;100.00;55571.53;4938356;29;20031;-74
2021/11/02 16:20:39;;;;;;;46.40;32.00;;;;;;;-140.66;100.00;55571.53;4937906;29;20039;-73
2021/11/02 16:23:40;;;;;;;54.17;35.78;;;;;;;-140.66;100.00;55571.53;4937850;29;20028;-74
2021/11/02 16:26:28;;;;;;;50.28;34.80;;;;;;;-140.66;100.00;55571.53;4937794;29;20434;-74
2021/11/02 16:29:16;;;;;;;54.75;36.50;;;;;;;-140.66;100.00;55571.53;4939271;28;20035;-73
2021/11/02 16:35:48;;;;;;;51.40;35.30;;;;;;;-140.66;100.00;55571.53;4938202;29;20028;-74
2021/11/02 16:38:36;;;;;;;51.97;35.20;;;;;;;-140.66;100.00;55571.53;4937576;29;20055;-73
2021/11/02 16:41:46;;;;;;;52.70;34.45;;;;;;;-140.66;100.00;55571.53;4923160;29;20070;-74
2021/11/02 16:44:38;;;;;;;49.25;33.63;;;;;;;-140.66;100.00;55571.53;4923659;29;20039;-74
2021/11/02 16:47:24;;;;;;;52.38;34.65;;;;;;;-140.66;100.00;55571.53;4924886;28;20023;-74
2021/11/02 16:50:12;;;;;;;49.17;32.63;;;;;;;-140.66;100.00;55571.53;4923892;29;20199;-73
2021/11/02 16:53:22;;;;;;;47.45;32.28;;;;;;;-140.66;100.00;55571.53;4936823;29;20055;-73
2021/11/02 16:56:20;;;;;;;48.47;32.13;;;;;;;-140.66;100.00;55571.53;4924439;29;20111;-74
2021/11/02 16:59:08;;;;;;;50.15;33.35;;;;;;;-140.66;100.00;55571.53;4936952;29;20493;-73
2021/11/02 17:02:21;;;;;;;46.17;31.52;;;;;;;-140.66;100.00;55571.53;4937945;29;20123;-74
2021/11/02 17:05:19;;;;;;;45.72;31.40;;;;;;;-140.66;100.00;55571.53;4937439;29;20378;-73
2021/11/02 17:08:06;;;;;;;49.25;32.72;;;;;;;-140.66;100.00;55571.53;4924288;29;20039;-73
2021/11/02 17:10:55;;;;;;;48.50;32.20;;;;;;;-140.66;100.00;55571.53;4936594;29;20431;-74
2021/11/02 17:13:41;;;;;;;47.75;32.53;;;;;;;-140.66;100.00;55571.53;4924057;29;20097;-72
2021/11/02 18:01:48;;;;;;;68.60;46.03;;;;;;;-140.66;100.00;55571.53;5914061;23;20051;-73
2021/11/02 18:04:36;;;;;;;76.25;48.35;;;;;;;-140.66;100.00;55571.53;4961787;28;20126;-74
2021/11/02 18:07:21;;;;;;;73.85;48.72;;;;;;;-140.66;100.00;55571.53;4943310;29;20115;-73
2021/11/02 18:10:08;;;;;;;67.78;44.90;;;;;;;-140.66;100.00;55571.53;4941764;29;20110;-74
2021/11/02 18:12:55;;;;;;;71.50;46.60;;;;;;;-140.66;100.00;55571.53;4943286;29;20020;-72
2021/11/02 18:15:41;;;;;;;69.00;46.78;;;;;;;-140.66;100.00;55571.53;4929194;29;20111;-74
2021/11/02 18:18:29;;;;;;;74.03;48.22;;;;;;;-140.66;100.00;55571.53;4942794;29;20055;-74
2021/11/02 18:21:17;;;;;;;65.40;44.15;;;;;;;-140.66;100.00;55571.53;4942395;29;20114;-73
2021/11/02 18:24:05;;;;;;;68.18;43.88;;;;;;;-140.66;100.00;55571.53;4929202;29;20043;-73
2021/11/02 18:26:54;;;;;;;60.13;40.22;;;;;;;-140.66;100.00;55571.53;4928620;29;20038;-74
2021/11/02 18:29:40;;;;;;;66.10;42.38;;;;;;;-140.66;100.00;55571.53;4928022;29;20028;-74
2021/11/02 18:32:26;;;;;;;67.13;41.42;;;;;;;-140.66;100.00;55571.53;4943340;29;20366;-73
2021/11/02 18:35:14;;;;;;;62.65;41.03;;;;;;;-140.66;100.00;55571.53;4939565;29;20032;-73
2021/11/02 18:38:00;;;;;;;66.00;40.45;;;;;;;-140.66;100.00;55571.53;4939773;29;20074;-74
2021/11/02 18:40:46;;;;;;;60.90;37.70;;;;;;;-140.66;100.00;55571.53;4940188;29;20086;-73
2021/11/02 19:35:03;;;;;;;60.40;36.35;;;;;;;-140.66;100.00;55571.53;5564947;23;20091;-73
2021/11/02 19:37:49;;;;;;;59.90;36.42;;;;;;;-140.66;100.00;55571.53;4943680;29;20057;-73
2021/11/02 19:40:36;;;;;;;60.03;36.03;;;;;;;-140.66;100.00;55571.53;4943365;29;20035;-75
2021/11/02 19:43:22;;;;;;;62.72;36.70;;;;;;;-140.66;100.00;55571.53;4958071;29;20033;-73
2021/11/02 19:46:09;;;;;;;58.60;36.47;;;;;;;-140.66;100.00;55571.53;4942168;29;20078;-72
2021/11/02 19:48:55;;;;;;;61.38;36.35;;;;;;;-140.66;100.00;55571.53;4942488;29;20031;-73
2021/11/02 19:51:41;;;;;;;59.28;37.28;;;;;;;-140.66;100.00;55571.53;4956577;29;20561;-73
2021/11/02 19:54:29;;;;;;;57.17;35.72;;;;;;;-140.66;100.00;55571.53;4956644;29;20031;-73
2021/11/02 20:16:35;;;;;;;65.70;40.42;;;;;;;-140.66;100.00;55571.53;5211214;23;20063;-73
2021/11/02 20:19:27;;;;;;;67.47;40.75;;;;;;;-140.66;100.00;55571.53;4957245;29;20461;-72
2021/11/02 20:22:13;;;;;;;66.50;39.55;;;;;;;-140.66;100.00;55571.53;4956078;29;20118;-73
2021/11/02 20:25:00;;;;;;;66.43;40.38;;;;;;;-140.66;100.00;55571.53;4942443;29;20118;-73
2021/11/02 20:27:49;;;;;;;67.20;39.28;;;;;;;-140.66;100.00;55571.53;4942813;29;20034;-74
2021/11/02 20:30:35;;;;;;;65.57;39.83;;;;;;;-140.66;100.00;55571.53;4956190;29;20027;-73
2021/11/02 20:33:25;;;;;;;68.90;39.35;;;;;;;-140.66;100.00;55571.53;4942298;29;20035;-73
2021/11/02 20:36:16;;;;;;;68.88;38.70;;;;;;;-140.66;100.00;55571.53;4955748;29;20363;-74
2021/11/02 20:39:04;;;;;;;69.95;39.05;;;;;;;-140.66;100.00;55571.53;4956764;29;20118;-73
2021/11/02 20:41:52;;;;;;;66.13;39.03;;;;;;;-140.66;100.00;55571.53;4942675;29;20402;-73
2021/11/02 20:44:48;;;;;;;65.78;37.70;;;;;;;-140.66;100.00;55571.53;4955800;29;20031;-74
2021/11/02 20:47:45;;;;;;;66.30;37.28;;;;;;;-140.66;100.00;55571.53;4956481;29;20045;-73
2021/11/02 20:50:32;;;;;;;70.72;39.60;;;;;;;-140.66;100.00;55571.53;4957048;29;20401;-75
2021/11/02 20:53:18;;;;;;;71.00;39.33;;;;;;;-140.66;100.00;55571.53;4943428;29;20035;-74
2021/11/02 21:42:03;;;;;;;80.60;41.92;;;;;;;-140.66;100.00;55571.53;5815262;23;20074;-74
2021/11/02 21:44:56;;;;;;;87.75;43.95;;;;;;;-140.66;100.00;55571.53;4941184;29;20143;-73
2021/11/02 21:47:55;;;;;;;84.88;43.03;;;;;;;-140.66;100.00;55571.53;4956224;29;20034;-73
2021/11/02 21:50:45;;;;;;;80.18;41.40;;;;;;;-140.66;100.00;55571.53;4941787;29;20107;-74
2021/11/02 21:53:34;;;;;;;86.35;42.90;;;;;;;-140.66;100.00;55571.53;4956226;29;20462;-74
2021/11/02 21:56:21;;;;;;;86.90;41.72;;;;;;;-140.66;100.00;55571.53;4955691;29;20035;-73
2021/11/02 21:59:16;;;;;;;82.97;43.05;;;;;;;-140.66;100.00;55571.53;4955796;29;20069;-74
2021/11/02 22:02:10;;;;;;;89.03;44.72;;;;;;;-140.66;100.00;55571.53;4941224;29;20070;-73
2021/11/02 23:13:04;;;;;;;64.72;37.33;;;;;;;-140.66;100.00;55571.53;4969545;23;20059;-73
2021/11/02 23:15:51;;;;;;;67.28;36.47;;;;;;;-140.66;100.00;55571.53;4944227;29;20457;-73
2021/11/02 23:18:40;;;;;;;66.05;38.10;;;;;;;-140.66;100.00;55571.53;4957544;29;20101;-73
2021/11/02 23:21:25;;;;;;;55.78;35.45;;;;;;;-140.66;100.00;55571.53;4957400;28;20038;-73
2021/11/02 23:24:19;;;;;;;59.05;36.38;;;;;;;-140.66;100.00;55571.53;4956714;29;20027;-73
2021/11/02 23:27:05;;;;;;;63.40;37.70;;;;;;;-140.66;100.00;55571.53;4957276;29;20022;-73
2021/11/02 23:29:51;;;;;;;59.78;36.03;;;;;;;-140.66;100.00;55571.53;4957191;29;20050;-74
